Terminal Aerodrome Forecast
Issued by NWS Northern Indiana

Home | Current Version | Previous Version | Graphics & Text | Print | Product List | Glossary On
Versions: 1 2 3 4 5 6 7 8 9 10 11 12 13 14 15 16 17 18 19 20 21
000
FTUS43 KIWX 260539
TAFFWA
TAF
KFWA 260539Z 2606/2706 28008KT P6SM SCT006
     FM260800 27005KT 5SM BR BKN006
     FM261400 28007KT P6SM BKN015
     FM261800 23008KT P6SM BKN150=

USA.gov is the U.S. government's official web portal to all federal, state and local government web resources and services.